FOJJK PHNL-PHHN
Flight info
| Callsign | FOJJK |
|---|---|
| Flight time | 0h 56m |
| Altitude | 7000 |
| Route | PALAY3 MKK PLUMB BARBY |
| Aircraft | K100/L-SBDGRY/S |
Departure
| Time | 2026-05-09 01:14 |
|---|---|
| Airport | Daniel K. Inouye International Airport (PHNL) |
Arrival
| Time | 2026-05-09 02:11 |
|---|---|
| Airport | Hana Airport (PHHN) |
| Time | Latitude | Longitude | Altitude | Speed | Heading |
|---|---|---|---|---|---|
| 2026-05-09 01:01 | 21.32113 | -157.91375 | 20 ft | 0 kts | 38° |
| 2026-05-09 01:05 | 21.32124 | -157.91366 | 20 ft | 0 kts | 28° |
| 2026-05-09 01:10 | 21.32132 | -157.91362 | 20 ft | 5 kts | 28° |
| 2026-05-09 01:10 | 21.32146 | -157.91387 | 20 ft | 11 kts | 266° |
| 2026-05-09 01:10 | 21.32179 | -157.91494 | 20 ft | 21 kts | 322° |
| 2026-05-09 01:10 | 21.32294 | -157.91581 | 20 ft | 23 kts | 324° |
| 2026-05-09 01:11 | 21.32385 | -157.91691 | 20 ft | 24 kts | 280° |
| 2026-05-09 01:11 | 21.32388 | -157.91891 | 20 ft | 27 kts | 271° |
| 2026-05-09 01:11 | 21.32389 | -157.92101 | 20 ft | 27 kts | 273° |
| 2026-05-09 01:11 | 21.32390 | -157.92325 | 21 ft | 31 kts | 267° |
| 2026-05-09 01:12 | 21.32389 | -157.92578 | 21 ft | 32 kts | 269° |
| 2026-05-09 01:12 | 21.32410 | -157.92721 | 21 ft | 15 kts | 324° |
| 2026-05-09 01:12 | 21.32440 | -157.92730 | 21 ft | 1 kts | 358° |
| 2026-05-09 01:12 | 21.32483 | -157.92729 | 21 ft | 11 kts | 1° |
| 2026-05-09 01:13 | 21.32516 | -157.92683 | 21 ft | 0 kts | 91° |
| 2026-05-09 01:13 | 21.32516 | -157.92671 | 21 ft | 15 kts | 90° |
| 2026-05-09 01:13 | 21.32522 | -157.92330 | 25 ft | 71 kts | 85° |
| 2026-05-09 01:13 | 21.32541 | -157.91805 | 214 ft | 75 kts | 83° |
| 2026-05-09 01:14 | 21.32546 | -157.91254 | 495 ft | 70 kts | 85° |
| 2026-05-09 01:14 | 21.32496 | -157.90770 | 846 ft | 61 kts | 85° |
| 2026-05-09 01:14 | 21.32479 | -157.90329 | 1085 ft | 57 kts | 72° |
| 2026-05-09 01:14 | 21.32353 | -157.89931 | 1319 ft | 53 kts | 94° |
| 2026-05-09 01:15 | 21.32224 | -157.89813 | 890 ft | 91 kts | 257° |
| 2026-05-09 01:15 | 21.31781 | -157.90734 | 619 ft | 152 kts | 247° |
| 2026-05-09 01:15 | 21.31508 | -157.91818 | 841 ft | 150 kts | 297° |
| 2026-05-09 01:15 | 21.32158 | -157.92515 | 1203 ft | 130 kts | 4° |
| 2026-05-09 01:16 | 21.32880 | -157.92073 | 1556 ft | 130 kts | 64° |
| 2026-05-09 01:16 | 21.32708 | -157.91099 | 1919 ft | 152 kts | 125° |
| 2026-05-09 01:16 | 21.31898 | -157.90307 | 1994 ft | 161 kts | 128° |
| 2026-05-09 01:17 | 21.30423 | -157.88461 | 2009 ft | 164 kts | 124° |
| 2026-05-09 01:17 | 21.29710 | -157.87476 | 2009 ft | 168 kts | 119° |
| 2026-05-09 01:17 | 21.29108 | -157.86417 | 2005 ft | 169 kts | 116° |
| 2026-05-09 01:17 | 21.28726 | -157.85764 | 2070 ft | 167 kts | 118° |
| 2026-05-09 01:18 | 21.28157 | -157.84848 | 2183 ft | 164 kts | 118° |
| 2026-05-09 01:18 | 21.27521 | -157.83841 | 2307 ft | 161 kts | 118° |
| 2026-05-09 01:18 | 21.26896 | -157.82851 | 2434 ft | 160 kts | 118° |
| 2026-05-09 01:18 | 21.26271 | -157.81863 | 2553 ft | 159 kts | 119° |
| 2026-05-09 01:19 | 21.25647 | -157.80880 | 2683 ft | 160 kts | 121° |
| 2026-05-09 01:19 | 21.25021 | -157.79893 | 2795 ft | 159 kts | 120° |
| 2026-05-09 01:19 | 21.24613 | -157.79235 | 2890 ft | 161 kts | 120° |
| 2026-05-09 01:19 | 21.23974 | -157.78221 | 2990 ft | 167 kts | 120° |
| 2026-05-09 01:20 | 21.23101 | -157.76842 | 3127 ft | 170 kts | 120° |
| 2026-05-09 01:20 | 21.22657 | -157.76132 | 3199 ft | 168 kts | 120° |
| 2026-05-09 01:20 | 21.22005 | -157.75096 | 3329 ft | 168 kts | 121° |
| 2026-05-09 01:20 | 21.21336 | -157.74052 | 3476 ft | 173 kts | 119° |
| 2026-05-09 01:21 | 21.20708 | -157.72923 | 3488 ft | 177 kts | 121° |
| 2026-05-09 01:21 | 21.19982 | -157.71852 | 3491 ft | 177 kts | 127° |
| 2026-05-09 01:21 | 21.19251 | -157.70805 | 3494 ft | 175 kts | 123° |
| 2026-05-09 01:21 | 21.18586 | -157.69743 | 3493 ft | 174 kts | 121° |
| 2026-05-09 01:22 | 21.17920 | -157.68667 | 3491 ft | 173 kts | 121° |
| 2026-05-09 01:22 | 21.17251 | -157.67595 | 3490 ft | 173 kts | 122° |
| 2026-05-09 01:22 | 21.16572 | -157.66517 | 3490 ft | 174 kts | 122° |
| 2026-05-09 01:22 | 21.15894 | -157.65445 | 3491 ft | 173 kts | 122° |
| 2026-05-09 01:23 | 21.15223 | -157.64379 | 3493 ft | 173 kts | 122° |
| 2026-05-09 01:23 | 21.14548 | -157.63312 | 3491 ft | 173 kts | 123° |
| 2026-05-09 01:23 | 21.13873 | -157.62243 | 3492 ft | 173 kts | 122° |
| 2026-05-09 01:23 | 21.13196 | -157.61173 | 3491 ft | 174 kts | 122° |
| 2026-05-09 01:24 | 21.12515 | -157.60100 | 3488 ft | 174 kts | 121° |
| 2026-05-09 01:24 | 21.11839 | -157.59029 | 3485 ft | 173 kts | 122° |
| 2026-05-09 01:24 | 21.11160 | -157.57955 | 3488 ft | 175 kts | 122° |
| 2026-05-09 01:24 | 21.10694 | -157.56772 | 3487 ft | 173 kts | 97° |
| 2026-05-09 01:25 | 21.10700 | -157.55502 | 3487 ft | 169 kts | 82° |
| 2026-05-09 01:25 | 21.10809 | -157.54247 | 3494 ft | 169 kts | 84° |
| 2026-05-09 01:25 | 21.10904 | -157.52989 | 3496 ft | 170 kts | 84° |
| 2026-05-09 01:25 | 21.11006 | -157.51730 | 3495 ft | 169 kts | 84° |
| 2026-05-09 01:26 | 21.11108 | -157.50475 | 3490 ft | 169 kts | 83° |
| 2026-05-09 01:26 | 21.11210 | -157.49225 | 3483 ft | 169 kts | 84° |
| 2026-05-09 01:26 | 21.11312 | -157.47972 | 3481 ft | 169 kts | 84° |
| 2026-05-09 01:26 | 21.11413 | -157.46720 | 3483 ft | 169 kts | 84° |
| 2026-05-09 01:27 | 21.11514 | -157.45465 | 3485 ft | 169 kts | 84° |
| 2026-05-09 01:27 | 21.11616 | -157.44211 | 3487 ft | 169 kts | 84° |
| 2026-05-09 01:27 | 21.11717 | -157.42958 | 3490 ft | 172 kts | 84° |
| 2026-05-09 01:27 | 21.11821 | -157.41670 | 3493 ft | 174 kts | 84° |
| 2026-05-09 01:28 | 21.11925 | -157.40375 | 3490 ft | 174 kts | 84° |
| 2026-05-09 01:28 | 21.12029 | -157.39084 | 3494 ft | 174 kts | 84° |
| 2026-05-09 01:28 | 21.12133 | -157.37796 | 3572 ft | 170 kts | 84° |
| 2026-05-09 01:28 | 21.12231 | -157.36572 | 3788 ft | 162 kts | 84° |
| 2026-05-09 01:29 | 21.12328 | -157.35344 | 3796 ft | 167 kts | 84° |
| 2026-05-09 01:29 | 21.12428 | -157.34101 | 3868 ft | 165 kts | 84° |
| 2026-05-09 01:29 | 21.12525 | -157.32911 | 4110 ft | 156 kts | 84° |
| 2026-05-09 01:29 | 21.12618 | -157.31767 | 4358 ft | 153 kts | 85° |
| 2026-05-09 01:30 | 21.12708 | -157.30642 | 4605 ft | 151 kts | 85° |
| 2026-05-09 01:30 | 21.12799 | -157.29525 | 4846 ft | 151 kts | 85° |
| 2026-05-09 01:30 | 21.12887 | -157.28396 | 5000 ft | 157 kts | 85° |
| 2026-05-09 01:30 | 21.12978 | -157.27184 | 5007 ft | 167 kts | 85° |
| 2026-05-09 01:31 | 21.13079 | -157.25923 | 5009 ft | 173 kts | 85° |
| 2026-05-09 01:31 | 21.13182 | -157.24640 | 5006 ft | 176 kts | 85° |
| 2026-05-09 01:31 | 21.13285 | -157.23326 | 5007 ft | 178 kts | 85° |
| 2026-05-09 01:31 | 21.13394 | -157.22006 | 5007 ft | 178 kts | 85° |
| 2026-05-09 01:32 | 21.13499 | -157.20674 | 5006 ft | 181 kts | 86° |
| 2026-05-09 01:32 | 21.13605 | -157.19333 | 5011 ft | 181 kts | 86° |
| 2026-05-09 01:32 | 21.13713 | -157.17991 | 5010 ft | 181 kts | 86° |
| 2026-05-09 01:32 | 21.13786 | -157.16649 | 5010 ft | 180 kts | 95° |
| 2026-05-09 01:33 | 21.13530 | -157.15344 | 5012 ft | 179 kts | 104° |
| 2026-05-09 01:33 | 21.13273 | -157.14038 | 5010 ft | 179 kts | 102° |
| 2026-05-09 01:33 | 21.13025 | -157.12733 | 5012 ft | 179 kts | 102° |
| 2026-05-09 01:33 | 21.12768 | -157.11428 | 5015 ft | 179 kts | 102° |
| 2026-05-09 01:34 | 21.12508 | -157.10113 | 5016 ft | 182 kts | 102° |
| 2026-05-09 01:34 | 21.12251 | -157.08793 | 5016 ft | 181 kts | 103° |
| 2026-05-09 01:34 | 21.11991 | -157.07467 | 5019 ft | 182 kts | 103° |
| 2026-05-09 01:34 | 21.11729 | -157.06137 | 5018 ft | 182 kts | 103° |
| 2026-05-09 01:35 | 21.11468 | -157.04807 | 5017 ft | 183 kts | 102° |
| 2026-05-09 01:35 | 21.11205 | -157.03474 | 5020 ft | 183 kts | 102° |
| 2026-05-09 01:35 | 21.10942 | -157.02141 | 5020 ft | 183 kts | 103° |
| 2026-05-09 01:35 | 21.10679 | -157.00806 | 5019 ft | 183 kts | 103° |
| 2026-05-09 01:36 | 21.10416 | -156.99475 | 5021 ft | 183 kts | 103° |
| 2026-05-09 01:36 | 21.10156 | -156.98157 | 5020 ft | 183 kts | 102° |
| 2026-05-09 01:36 | 21.09893 | -156.96817 | 5022 ft | 184 kts | 103° |
| 2026-05-09 01:36 | 21.09628 | -156.95475 | 5022 ft | 184 kts | 103° |
| 2026-05-09 01:37 | 21.09363 | -156.94131 | 5022 ft | 185 kts | 103° |
| 2026-05-09 01:37 | 21.09097 | -156.92785 | 5015 ft | 184 kts | 103° |
| 2026-05-09 01:37 | 21.08830 | -156.91442 | 5005 ft | 185 kts | 103° |
| 2026-05-09 01:37 | 21.08569 | -156.90095 | 5006 ft | 185 kts | 102° |
| 2026-05-09 01:38 | 21.08297 | -156.88749 | 5001 ft | 185 kts | 105° |
| 2026-05-09 01:38 | 21.08030 | -156.87408 | 5014 ft | 184 kts | 103° |
| 2026-05-09 01:38 | 21.07766 | -156.86086 | 5007 ft | 183 kts | 104° |
| 2026-05-09 01:38 | 21.07511 | -156.84743 | 5006 ft | 185 kts | 104° |
| 2026-05-09 01:39 | 21.07240 | -156.83398 | 5007 ft | 185 kts | 104° |
| 2026-05-09 01:39 | 21.06969 | -156.82044 | 5003 ft | 187 kts | 104° |
| 2026-05-09 01:39 | 21.06701 | -156.80685 | 4992 ft | 185 kts | 103° |
| 2026-05-09 01:39 | 21.06436 | -156.79339 | 4998 ft | 184 kts | 105° |
| 2026-05-09 01:40 | 21.06170 | -156.78003 | 4991 ft | 183 kts | 103° |
| 2026-05-09 01:40 | 21.05905 | -156.76670 | 5002 ft | 183 kts | 105° |
| 2026-05-09 01:40 | 21.05640 | -156.75338 | 5000 ft | 183 kts | 104° |
| 2026-05-09 01:40 | 21.05376 | -156.74005 | 4996 ft | 183 kts | 104° |
| 2026-05-09 01:41 | 21.05112 | -156.72677 | 4997 ft | 182 kts | 103° |
| 2026-05-09 01:41 | 21.04848 | -156.71353 | 4999 ft | 182 kts | 104° |
| 2026-05-09 01:41 | 21.04585 | -156.70030 | 4995 ft | 182 kts | 104° |
| 2026-05-09 01:41 | 21.04321 | -156.68704 | 5001 ft | 182 kts | 105° |
| 2026-05-09 01:42 | 21.04056 | -156.67377 | 5001 ft | 183 kts | 103° |
| 2026-05-09 01:42 | 21.03792 | -156.66047 | 4995 ft | 183 kts | 104° |
| 2026-05-09 01:42 | 21.03530 | -156.64731 | 5003 ft | 183 kts | 104° |
| 2026-05-09 01:42 | 21.03261 | -156.63384 | 5005 ft | 183 kts | 104° |
| 2026-05-09 01:43 | 21.02995 | -156.62051 | 5004 ft | 183 kts | 103° |
| 2026-05-09 01:43 | 21.02731 | -156.60723 | 5006 ft | 182 kts | 105° |
| 2026-05-09 01:43 | 21.02471 | -156.59414 | 5008 ft | 182 kts | 105° |
| 2026-05-09 01:43 | 21.02205 | -156.58094 | 5006 ft | 181 kts | 104° |
| 2026-05-09 01:44 | 21.01940 | -156.56778 | 5005 ft | 180 kts | 103° |
| 2026-05-09 01:44 | 21.01676 | -156.55468 | 4998 ft | 180 kts | 102° |
| 2026-05-09 01:44 | 21.01423 | -156.54160 | 4997 ft | 179 kts | 102° |
| 2026-05-09 01:44 | 21.01161 | -156.52850 | 4997 ft | 180 kts | 102° |
| 2026-05-09 01:45 | 21.00899 | -156.51541 | 4997 ft | 180 kts | 102° |
| 2026-05-09 01:45 | 21.00639 | -156.50251 | 4994 ft | 179 kts | 102° |
| 2026-05-09 01:45 | 21.00378 | -156.48947 | 4994 ft | 179 kts | 102° |
| 2026-05-09 01:45 | 21.00117 | -156.47643 | 4994 ft | 179 kts | 102° |
| 2026-05-09 01:46 | 20.99856 | -156.46340 | 4993 ft | 179 kts | 102° |
| 2026-05-09 01:46 | 20.99593 | -156.45036 | 4996 ft | 180 kts | 102° |
| 2026-05-09 01:46 | 20.99330 | -156.43729 | 4996 ft | 180 kts | 102° |
| 2026-05-09 01:46 | 20.99068 | -156.42423 | 4996 ft | 180 kts | 102° |
| 2026-05-09 01:47 | 20.98806 | -156.41117 | 4996 ft | 180 kts | 102° |
| 2026-05-09 01:47 | 20.98543 | -156.39809 | 4996 ft | 179 kts | 102° |
| 2026-05-09 01:47 | 20.98281 | -156.38505 | 4996 ft | 179 kts | 102° |
| 2026-05-09 01:47 | 20.98019 | -156.37200 | 4996 ft | 179 kts | 102° |
| 2026-05-09 01:48 | 20.97757 | -156.35895 | 4996 ft | 180 kts | 102° |
| 2026-05-09 01:48 | 20.97494 | -156.34587 | 4997 ft | 180 kts | 102° |
| 2026-05-09 01:48 | 20.97230 | -156.33280 | 4997 ft | 180 kts | 102° |
| 2026-05-09 01:48 | 20.96967 | -156.31973 | 4997 ft | 179 kts | 102° |
| 2026-05-09 01:49 | 20.96704 | -156.30670 | 4997 ft | 179 kts | 102° |
| 2026-05-09 01:49 | 20.96441 | -156.29364 | 4998 ft | 180 kts | 102° |
| 2026-05-09 01:49 | 20.96181 | -156.28074 | 4998 ft | 180 kts | 102° |
| 2026-05-09 01:49 | 20.95916 | -156.26762 | 4998 ft | 180 kts | 102° |
| 2026-05-09 01:50 | 20.95652 | -156.25454 | 4998 ft | 180 kts | 102° |
| 2026-05-09 01:50 | 20.95387 | -156.24143 | 4998 ft | 180 kts | 102° |
| 2026-05-09 01:50 | 20.95122 | -156.22833 | 4997 ft | 180 kts | 102° |
| 2026-05-09 01:50 | 20.94857 | -156.21523 | 4997 ft | 180 kts | 102° |
| 2026-05-09 01:51 | 20.94592 | -156.20211 | 4997 ft | 180 kts | 102° |
| 2026-05-09 01:51 | 20.94377 | -156.18892 | 4995 ft | 180 kts | 93° |
| 2026-05-09 01:51 | 20.94451 | -156.17570 | 4994 ft | 179 kts | 68° |
| 2026-05-09 01:51 | 20.95328 | -156.16695 | 5003 ft | 178 kts | 20° |
| 2026-05-09 01:52 | 20.96550 | -156.16628 | 5003 ft | 180 kts | 343° |
| 2026-05-09 01:52 | 20.97543 | -156.17403 | 5006 ft | 181 kts | 304° |
| 2026-05-09 01:52 | 20.97843 | -156.18689 | 5006 ft | 183 kts | 263° |
| 2026-05-09 01:52 | 20.97282 | -156.19878 | 5005 ft | 183 kts | 222° |
| 2026-05-09 01:53 | 20.96129 | -156.20372 | 5004 ft | 182 kts | 180° |
| 2026-05-09 01:53 | 20.94965 | -156.19925 | 5006 ft | 181 kts | 138° |
| 2026-05-09 01:53 | 20.94382 | -156.18772 | 5008 ft | 179 kts | 97° |
| 2026-05-09 01:53 | 20.94319 | -156.17440 | 5005 ft | 179 kts | 91° |
| 2026-05-09 01:54 | 20.94277 | -156.16104 | 5006 ft | 180 kts | 92° |
| 2026-05-09 01:54 | 20.94225 | -156.14764 | 5004 ft | 180 kts | 92° |
| 2026-05-09 01:54 | 20.94172 | -156.13425 | 5004 ft | 180 kts | 92° |
| 2026-05-09 01:54 | 20.94118 | -156.12087 | 4995 ft | 180 kts | 92° |
| 2026-05-09 01:55 | 20.94064 | -156.10746 | 4994 ft | 180 kts | 92° |
| 2026-05-09 01:55 | 20.94010 | -156.09406 | 4993 ft | 180 kts | 92° |
| 2026-05-09 01:55 | 20.93956 | -156.08064 | 4979 ft | 181 kts | 92° |
| 2026-05-09 01:55 | 20.93900 | -156.06704 | 4767 ft | 190 kts | 92° |
| 2026-05-09 01:56 | 20.93842 | -156.05271 | 4508 ft | 195 kts | 91° |
| 2026-05-09 01:56 | 20.93785 | -156.03828 | 4246 ft | 191 kts | 91° |
| 2026-05-09 01:56 | 20.93728 | -156.02433 | 3998 ft | 185 kts | 90° |
| 2026-05-09 01:56 | 20.93673 | -156.01071 | 3784 ft | 180 kts | 90° |
| 2026-05-09 01:57 | 20.93620 | -155.99782 | 3782 ft | 168 kts | 90° |
| 2026-05-09 01:57 | 20.93569 | -155.98559 | 3774 ft | 162 kts | 90° |
| 2026-05-09 01:57 | 20.93521 | -155.97364 | 3771 ft | 160 kts | 91° |
| 2026-05-09 01:57 | 20.93473 | -155.96189 | 3771 ft | 157 kts | 89° |
| 2026-05-09 01:58 | 20.93425 | -155.95027 | 3769 ft | 156 kts | 89° |
| 2026-05-09 01:58 | 20.93378 | -155.93877 | 3768 ft | 154 kts | 90° |
| 2026-05-09 01:58 | 20.93330 | -155.92720 | 3776 ft | 157 kts | 90° |
| 2026-05-09 01:58 | 20.93280 | -155.91547 | 3780 ft | 159 kts | 91° |
| 2026-05-09 01:59 | 20.93231 | -155.90355 | 3778 ft | 161 kts | 90° |
| 2026-05-09 01:59 | 20.93183 | -155.89162 | 3778 ft | 161 kts | 90° |
| 2026-05-09 01:59 | 20.93132 | -155.87961 | 3748 ft | 164 kts | 89° |
| 2026-05-09 01:59 | 20.93080 | -155.86713 | 3542 ft | 169 kts | 90° |
| 2026-05-09 02:00 | 20.92984 | -155.85453 | 3317 ft | 171 kts | 100° |
| 2026-05-09 02:00 | 20.92475 | -155.84295 | 3094 ft | 175 kts | 123° |
| 2026-05-09 02:00 | 20.91582 | -155.83419 | 3003 ft | 172 kts | 145° |
| 2026-05-09 02:00 | 20.90512 | -155.82983 | 3009 ft | 162 kts | 168° |
| 2026-05-09 02:01 | 20.89424 | -155.82939 | 3002 ft | 152 kts | 178° |
| 2026-05-09 02:01 | 20.88382 | -155.82937 | 3002 ft | 149 kts | 176° |
| 2026-05-09 02:01 | 20.87349 | -155.82933 | 3004 ft | 149 kts | 178° |
| 2026-05-09 02:01 | 20.86312 | -155.82934 | 3003 ft | 148 kts | 179° |
| 2026-05-09 02:02 | 20.85318 | -155.82942 | 3002 ft | 138 kts | 178° |
| 2026-05-09 02:02 | 20.84374 | -155.82940 | 3000 ft | 133 kts | 177° |
| 2026-05-09 02:02 | 20.83462 | -155.82941 | 3001 ft | 129 kts | 179° |
| 2026-05-09 02:02 | 20.82569 | -155.82943 | 2971 ft | 129 kts | 178° |
| 2026-05-09 02:03 | 20.81692 | -155.82953 | 2843 ft | 123 kts | 179° |
| 2026-05-09 02:03 | 20.80838 | -155.82954 | 2685 ft | 122 kts | 179° |
| 2026-05-09 02:03 | 20.80055 | -155.83256 | 2518 ft | 121 kts | 221° |
| 2026-05-09 02:03 | 20.79606 | -155.83952 | 2427 ft | 109 kts | 258° |
| 2026-05-09 02:04 | 20.79545 | -155.84715 | 2358 ft | 100 kts | 278° |
| 2026-05-09 02:04 | 20.79543 | -155.85454 | 2289 ft | 98 kts | 276° |
| 2026-05-09 02:04 | 20.79539 | -155.86161 | 2226 ft | 92 kts | 279° |
| 2026-05-09 02:04 | 20.79537 | -155.86827 | 2174 ft | 87 kts | 278° |
| 2026-05-09 02:05 | 20.79538 | -155.87459 | 2121 ft | 84 kts | 278° |
| 2026-05-09 02:05 | 20.79539 | -155.88084 | 2063 ft | 83 kts | 277° |
| 2026-05-09 02:05 | 20.79545 | -155.88703 | 2007 ft | 84 kts | 278° |
| 2026-05-09 02:05 | 20.79544 | -155.89326 | 1951 ft | 83 kts | 280° |
| 2026-05-09 02:06 | 20.79547 | -155.89944 | 1895 ft | 84 kts | 280° |
| 2026-05-09 02:06 | 20.79553 | -155.90575 | 1839 ft | 86 kts | 280° |
| 2026-05-09 02:06 | 20.79553 | -155.91198 | 1797 ft | 84 kts | 278° |
| 2026-05-09 02:07 | 20.79565 | -155.92311 | 1623 ft | 94 kts | 276° |
| 2026-05-09 02:07 | 20.79565 | -155.93025 | 1502 ft | 98 kts | 275° |
| 2026-05-09 02:07 | 20.79561 | -155.93739 | 1375 ft | 92 kts | 276° |
| 2026-05-09 02:07 | 20.79553 | -155.94387 | 1258 ft | 83 kts | 280° |
| 2026-05-09 02:08 | 20.79552 | -155.95201 | 1101 ft | 82 kts | 276° |
| 2026-05-09 02:08 | 20.79556 | -155.95801 | 988 ft | 80 kts | 276° |
| 2026-05-09 02:08 | 20.79555 | -155.96209 | 914 ft | 82 kts | 276° |
| 2026-05-09 02:08 | 20.79556 | -155.96825 | 809 ft | 84 kts | 277° |
| 2026-05-09 02:09 | 20.79565 | -155.97453 | 690 ft | 83 kts | 276° |
| 2026-05-09 02:09 | 20.79562 | -155.98060 | 586 ft | 80 kts | 278° |
| 2026-05-09 02:09 | 20.79552 | -155.98651 | 488 ft | 80 kts | 274° |
| 2026-05-09 02:09 | 20.79550 | -155.99250 | 375 ft | 81 kts | 276° |
| 2026-05-09 02:10 | 20.79554 | -155.99842 | 269 ft | 80 kts | 282° |
| 2026-05-09 02:10 | 20.79560 | -156.00430 | 159 ft | 78 kts | 277° |
| 2026-05-09 02:10 | 20.79559 | -156.00999 | 50 ft | 71 kts | 281° |
| 2026-05-09 02:10 | 20.79571 | -156.01433 | 33 ft | 51 kts | 266° |
| 2026-05-09 02:11 | 20.79571 | -156.01665 | 42 ft | 24 kts | 270° |
| 2026-05-09 02:11 | 20.79568 | -156.01838 | 44 ft | 23 kts | 263° |
| 2026-05-09 02:11 | 20.79544 | -156.01946 | 45 ft | 8 kts | 312° |
| 2026-05-09 02:11 | 20.79564 | -156.01907 | 40 ft | 9 kts | 89° |
| 2026-05-09 02:12 | 20.79565 | -156.01831 | 44 ft | 11 kts | 88° |
| 2026-05-09 02:12 | 20.79565 | -156.01744 | 43 ft | 13 kts | 89° |
| 2026-05-09 02:12 | 20.79568 | -156.01637 | 41 ft | 12 kts | 93° |
| 2026-05-09 02:12 | 20.79550 | -156.01578 | 39 ft | 9 kts | 137° |
| 2026-05-09 02:13 | 20.79494 | -156.01537 | 34 ft | 9 kts | 136° |
| 2026-05-09 02:13 | 20.79470 | -156.01519 | 39 ft | 4 kts | 167° |
| 2026-05-09 02:13 | 20.79469 | -156.01519 | 39 ft | 0 kts | 167° |